Anchorage, Utah
Current Conditions -  °F | °C
As of 1:58 PM on Friday 19 Dec 2014 (Local Time) from KHIF Reporting Station
Broken Clouds Broken Clouds  
Wind Chill:   Ceiling: 7000
Heat Index:   Visibility: 10mi
Dew Point: -3°   Wind: 14mph
Humidity: 52%   Direction: 170°S
Pressure: 30.11"   Gusts: NA
Location:  41.123°N, 112.063°W
Report Text: KHIF 192058Z 17012KT 10SM FEW060 BKN070 06/M03 A3011 RMK AO2A SLP197 T00581034 57021
Loading
Personal Weather Stations






























Interactive Weather Map New forecast layout! Learn more

10-Day Weather Forecast

Advertisements
Track Severe Weather on mobile